createdAt,value
2019-03-15T00:02:14.384Z,19.85
2019-03-15T00:04:43.658Z,15.93
2019-03-15T00:07:12.929Z,15.08
2019-03-15T00:09:42.214Z,16.42
2019-03-15T00:12:14.309Z,14.60
2019-03-15T00:14:43.655Z,16.65
2019-03-15T00:17:12.945Z,21.12
2019-03-15T00:19:42.490Z,10.72
2019-03-15T00:22:12.833Z,19.60
2019-03-15T00:24:42.422Z,23.12
2019-03-15T00:27:12.040Z,21.68
2019-03-15T00:29:41.336Z,14.95
2019-03-15T00:32:14.024Z,10.18
2019-03-15T00:34:43.631Z,17.05
2019-03-15T00:37:12.901Z,17.67
2019-03-15T00:39:42.181Z,15.50
2019-03-15T00:42:11.464Z,21.25
2019-03-15T00:44:40.956Z,24.05
2019-03-15T00:47:10.409Z,19.40
2019-03-15T00:49:39.936Z,17.48
2019-03-15T00:52:09.554Z,16.30
2019-03-15T00:54:38.831Z,14.25
2019-03-15T00:57:08.119Z,16.17
2019-03-15T00:59:37.404Z,13.32
2019-03-15T01:02:06.674Z,20.37
2019-03-15T01:04:35.976Z,16.85
2019-03-15T01:07:05.245Z,13.85
2019-03-15T01:09:34.780Z,15.80
2019-03-15T01:12:04.366Z,21.48
2019-03-15T01:14:33.971Z,17.65
2019-03-15T01:17:03.505Z,17.82
2019-03-15T01:19:32.791Z,12.90
2019-03-15T01:22:02.392Z,20.23
2019-03-15T01:24:31.677Z,17.45
2019-03-15T01:27:00.963Z,21.90
2019-03-15T01:29:30.253Z,16.30
2019-03-15T01:31:59.534Z,13.72
2019-03-15T01:34:30.124Z,9.45
2019-03-15T01:36:59.732Z,15.08
2019-03-15T01:39:29.448Z,22.10
2019-03-15T01:42:00.079Z,15.13
2019-03-15T01:44:29.356Z,14.10
2019-03-15T01:46:59.371Z,13.93
2019-03-15T01:49:28.841Z,13.58
2019-03-15T01:51:58.405Z,15.48
2019-03-15T01:54:27.696Z,12.20
2019-03-15T01:56:56.984Z,14.03
2019-03-15T01:59:26.252Z,14.87
2019-03-15T02:01:55.556Z,18.37
2019-03-15T02:04:24.846Z,12.28
2019-03-15T02:06:54.129Z,12.40
2019-03-15T02:09:23.417Z,15.83
2019-03-15T02:11:53.117Z,13.08
2019-03-15T02:14:22.723Z,11.25
2019-03-15T02:16:52.024Z,19.02
2019-03-15T02:19:21.316Z,11.30
2019-03-15T02:21:50.588Z,11.88
2019-03-15T02:24:19.862Z,19.48
2019-03-15T02:26:49.146Z,14.05
2019-03-15T02:29:18.727Z,18.32
2019-03-15T02:31:48.005Z,9.48
2019-03-15T02:34:17.534Z,13.32
2019-03-15T02:36:46.836Z,12.93
2019-03-15T02:39:16.342Z,12.20
2019-03-15T02:41:45.959Z,14.47
2019-03-15T02:44:15.251Z,11.22
2019-03-15T02:46:44.547Z,11.53
2019-03-15T02:49:13.809Z,11.55
2019-03-15T02:51:43.369Z,13.38
2019-03-15T02:54:12.639Z,17.45
2019-03-15T02:56:42.469Z,8.50
2019-03-15T02:59:12.402Z,15.50
2019-03-15T03:01:41.691Z,11.40
2019-03-15T03:04:11.316Z,10.53
2019-03-15T03:06:41.013Z,11.40
2019-03-15T03:09:10.637Z,14.45
2019-03-15T03:11:39.918Z,17.27
2019-03-15T03:14:09.277Z,12.68
2019-03-15T03:16:38.562Z,13.95
2019-03-15T03:19:07.835Z,9.38
2019-03-15T03:21:37.119Z,12.05
2019-03-15T03:24:06.400Z,13.80
2019-03-15T03:26:35.682Z,18.00
2019-03-15T03:29:04.958Z,11.20
2019-03-15T03:31:34.251Z,13.93
2019-03-15T03:34:03.537Z,13.30
2019-03-15T03:36:32.848Z,19.57
2019-03-15T03:39:02.135Z,13.62
2019-03-15T03:41:32.864Z,14.83
2019-03-15T03:44:02.142Z,18.02
2019-03-15T03:46:31.434Z,12.13
2019-03-15T03:49:01.802Z,18.95
2019-03-15T03:51:31.594Z,12.68
2019-03-15T03:54:01.213Z,9.80
2019-03-15T03:56:30.829Z,10.35
2019-03-15T03:59:00.113Z,16.48
2019-03-15T04:01:29.399Z,13.75
2019-03-15T04:03:58.686Z,13.98
2019-03-15T04:06:27.958Z,15.30
2019-03-15T04:08:57.237Z,11.60
2019-03-15T04:11:26.510Z,12.10
2019-03-15T04:13:55.811Z,10.88
2019-03-15T04:16:25.427Z,12.60
2019-03-15T04:18:54.728Z,13.58
2019-03-15T04:21:24.336Z,12.28
2019-03-15T04:23:53.648Z,11.28
2019-03-15T04:26:23.238Z,10.80
2019-03-15T04:28:52.536Z,18.35
2019-03-15T04:31:22.161Z,14.63
2019-03-15T04:33:51.764Z,13.88
2019-03-15T04:36:21.048Z,8.15
2019-03-15T04:38:50.329Z,16.23
2019-03-15T04:41:19.603Z,13.75
2019-03-15T04:43:49.167Z,11.00
2019-03-15T04:46:18.474Z,9.73
2019-03-15T04:48:47.827Z,13.75
2019-03-15T04:51:17.183Z,13.05
2019-03-15T04:53:46.774Z,10.43
2019-03-15T04:56:16.049Z,11.00
2019-03-15T04:58:45.357Z,18.27
2019-03-15T05:01:14.638Z,7.37
2019-03-15T05:03:43.936Z,10.88
2019-03-15T05:06:13.221Z,15.72
2019-03-15T05:08:42.507Z,15.53
2019-03-15T05:11:12.096Z,13.65
2019-03-15T05:13:41.373Z,17.48
2019-03-15T05:16:11.004Z,16.45
2019-03-15T05:18:40.281Z,22.87
2019-03-15T05:21:09.805Z,17.17
2019-03-15T05:23:39.118Z,13.50
2019-03-15T05:26:08.432Z,21.82
2019-03-15T05:28:37.972Z,17.57
2019-03-15T05:31:07.259Z,17.70
2019-03-15T05:33:36.608Z,15.50
2019-03-15T05:36:06.228Z,17.85
2019-03-15T05:38:35.528Z,13.03
2019-03-15T05:41:05.052Z,16.07
2019-03-15T05:43:34.634Z,20.15
2019-03-15T05:46:03.931Z,15.18
2019-03-15T05:48:33.445Z,17.40
2019-03-15T05:51:03.050Z,18.90
2019-03-15T05:53:32.325Z,16.25
2019-03-15T05:56:01.609Z,11.55
2019-03-15T05:58:30.896Z,24.25
2019-03-15T06:01:00.192Z,18.65
2019-03-15T06:03:29.461Z,26.02
2019-03-15T06:05:58.760Z,28.70
2019-03-15T06:08:28.386Z,27.07
2019-03-15T06:10:57.881Z,27.45
2019-03-15T06:13:28.244Z,21.17
2019-03-15T06:15:57.523Z,19.35
2019-03-15T06:18:26.801Z,23.77
2019-03-15T06:20:56.100Z,19.48
2019-03-15T06:23:25.708Z,23.87
2019-03-15T06:25:55.003Z,22.22
2019-03-15T06:28:24.610Z,24.75
2019-03-15T06:30:54.225Z,20.97
2019-03-15T06:33:23.503Z,21.77
2019-03-15T06:35:53.142Z,25.27
2019-03-15T06:38:22.425Z,16.52
2019-03-15T06:40:51.933Z,22.73
2019-03-15T06:43:21.224Z,29.72
2019-03-15T06:45:50.849Z,25.92
2019-03-15T06:48:20.121Z,24.23
2019-03-15T06:50:49.410Z,24.52
2019-03-15T06:53:18.690Z,24.15
2019-03-15T06:55:48.259Z,23.98
2019-03-15T06:58:17.987Z,35.58
2019-03-15T07:00:47.340Z,31.25
2019-03-15T07:03:16.612Z,24.75
2019-03-15T07:05:45.908Z,28.00
2019-03-15T07:08:15.480Z,25.27
2019-03-15T07:10:44.850Z,24.90
2019-03-15T07:13:14.209Z,23.02
2019-03-15T07:15:44.481Z,18.70
2019-03-15T07:18:13.945Z,30.80
2019-03-15T07:20:43.509Z,18.20
2019-03-15T07:23:12.803Z,26.50
2019-03-15T07:25:42.108Z,21.77
2019-03-15T07:28:11.389Z,27.02
2019-03-15T07:30:40.661Z,25.10
2019-03-15T07:33:09.951Z,17.80
2019-03-15T07:35:39.252Z,18.07
2019-03-15T07:38:08.525Z,17.40
2019-03-15T07:40:37.804Z,25.45
2019-03-15T07:43:07.100Z,25.72
2019-03-15T07:45:36.370Z,27.27
2019-03-15T07:48:05.660Z,19.17
2019-03-15T07:50:34.938Z,19.10
2019-03-15T07:53:04.221Z,28.47
2019-03-15T07:55:33.526Z,20.50
2019-03-15T07:58:02.790Z,21.65
2019-03-15T08:00:32.065Z,15.80
2019-03-15T08:03:01.353Z,22.93
2019-03-15T08:05:30.644Z,14.35
2019-03-15T08:08:00.234Z,12.63
2019-03-15T08:10:29.526Z,18.67
2019-03-15T08:12:59.156Z,20.27
2019-03-15T08:15:28.428Z,13.60
2019-03-15T08:17:58.043Z,17.05
2019-03-15T08:20:27.321Z,15.40
2019-03-15T08:22:56.615Z,14.65
2019-03-15T08:25:25.906Z,16.42
2019-03-15T08:27:55.452Z,9.10
2019-03-15T08:30:25.079Z,18.07
2019-03-15T08:32:54.680Z,11.28
2019-03-15T08:35:24.764Z,11.60
2019-03-15T08:37:54.510Z,12.13
2019-03-15T08:40:25.781Z,14.38
2019-03-15T08:42:55.355Z,8.33
2019-03-15T08:45:24.968Z,9.30
2019-03-15T08:47:54.255Z,8.15
2019-03-15T08:50:24.720Z,7.35
2019-03-15T08:52:54.555Z,8.68
2019-03-15T08:55:23.995Z,9.23
2019-03-15T08:57:53.624Z,13.00
2019-03-15T09:00:22.907Z,10.60
2019-03-15T09:02:52.185Z,14.63
2019-03-15T09:05:21.477Z,11.95
2019-03-15T09:07:50.761Z,22.22
2019-03-15T09:10:23.829Z,9.80
2019-03-15T09:12:51.836Z,10.58
2019-03-15T09:15:21.130Z,11.88
2019-03-15T09:17:50.427Z,12.50
2019-03-15T09:20:19.706Z,13.05
2019-03-15T09:22:49.008Z,17.15
2019-03-15T09:25:20.605Z,15.55
2019-03-15T09:27:50.139Z,20.70
2019-03-15T09:30:23.676Z,16.30
2019-03-15T09:32:50.417Z,18.60
2019-03-15T09:35:19.701Z,17.27
2019-03-15T09:37:49.004Z,16.60
2019-03-15T09:40:18.604Z,37.67
2019-03-15T09:42:48.199Z,15.95
2019-03-15T09:45:18.426Z,17.92
2019-03-15T09:47:47.783Z,33.05
2019-03-15T09:50:29.062Z,21.25
2019-03-15T09:52:48.685Z,38.83
2019-03-15T09:55:27.782Z,28.95
2019-03-15T09:57:48.953Z,16.85
2019-03-15T10:00:19.385Z,17.57
2019-03-15T10:02:48.674Z,13.38
2019-03-15T10:05:17.973Z,15.17
2019-03-15T10:07:47.270Z,14.47
2019-03-15T10:10:20.333Z,15.63
2019-03-15T10:12:49.842Z,13.08
2019-03-15T10:15:19.129Z,12.00
2019-03-15T10:17:48.410Z,13.50
2019-03-15T10:20:17.715Z,14.30
2019-03-15T10:23:04.103Z,13.63
2019-03-15T10:25:18.257Z,15.70
2019-03-15T10:27:47.547Z,16.20
2019-03-15T10:30:18.954Z,13.57
2019-03-15T10:32:48.693Z,11.73
2019-03-15T10:35:18.049Z,12.03
2019-03-15T10:37:47.314Z,48.83
2019-03-15T10:40:19.329Z,18.50
2019-03-15T10:42:48.619Z,12.60
2019-03-15T10:45:17.901Z,13.80
2019-03-15T10:47:47.186Z,14.47
2019-03-15T10:50:17.593Z,12.43
2019-03-15T10:52:46.873Z,10.83
2019-03-15T10:55:16.165Z,11.77
2019-03-15T10:57:46.105Z,11.50
2019-03-15T11:00:21.565Z,15.10
2019-03-15T11:02:50.918Z,9.23
2019-03-15T11:05:20.487Z,12.30
2019-03-15T11:07:49.806Z,12.57
2019-03-15T11:10:19.103Z,11.23
2019-03-15T11:12:48.422Z,11.27
2019-03-15T11:15:17.773Z,13.13
2019-03-15T11:17:47.343Z,9.63
2019-03-15T11:20:16.942Z,7.97
2019-03-15T11:22:46.236Z,15.20
2019-03-15T11:25:15.542Z,17.30
2019-03-15T11:27:44.805Z,17.90
2019-03-15T11:30:15.075Z,17.70
2019-03-15T11:32:44.376Z,16.60
2019-03-15T11:35:14.077Z,17.63
2019-03-15T11:37:44.351Z,19.60
2019-03-15T11:40:19.083Z,17.50
2019-03-15T11:42:48.563Z,22.13
2019-03-15T11:45:17.857Z,18.57
2019-03-15T11:48:02.818Z,20.80
2019-03-15T11:50:21.592Z,19.70
2019-03-15T11:52:51.270Z,20.43
2019-03-15T11:55:20.574Z,36.17
2019-03-15T11:57:49.944Z,27.17
2019-03-15T12:00:20.001Z,20.70
2019-03-15T12:02:49.312Z,32.20
2019-03-15T12:05:18.581Z,19.00
2019-03-15T12:07:47.879Z,32.50
2019-03-15T12:10:17.808Z,24.40
2019-03-15T12:12:47.098Z,29.03
2019-03-15T12:15:17.657Z,28.83
2019-03-15T12:17:46.974Z,17.77
2019-03-15T12:20:16.251Z,16.07
2019-03-15T12:22:45.541Z,15.60
2019-03-15T12:25:15.276Z,24.77
2019-03-15T12:27:44.586Z,22.13
2019-03-15T12:30:15.006Z,20.87
2019-03-15T12:32:44.312Z,17.47
2019-03-15T12:35:14.397Z,20.90
2019-03-15T12:37:43.934Z,20.23
2019-03-15T12:40:14.880Z,16.77
2019-03-15T12:42:44.173Z,18.93
2019-03-15T12:45:14.416Z,24.33
2019-03-15T12:47:43.694Z,21.40
2019-03-15T12:50:14.035Z,17.80
2019-03-15T12:52:48.500Z,18.33
2019-03-15T12:55:16.174Z,15.40
2019-03-15T12:57:49.026Z,12.17
2019-03-15T13:00:20.913Z,18.23
2019-03-15T13:02:50.199Z,16.17
2019-03-15T13:05:19.498Z,20.17
2019-03-15T13:07:49.042Z,19.10
2019-03-15T13:10:20.444Z,16.33
2019-03-15T13:12:49.911Z,15.70
2019-03-15T13:15:19.195Z,16.57
2019-03-15T13:17:48.814Z,15.90
2019-03-15T13:20:18.717Z,33.30
2019-03-15T13:22:48.021Z,21.83
2019-03-15T13:25:17.303Z,18.17
2019-03-15T13:27:46.920Z,21.23
2019-03-15T13:30:16.885Z,13.40
2019-03-15T13:32:46.172Z,14.23
2019-03-15T13:35:15.850Z,17.00
2019-03-15T13:37:45.133Z,14.30
2019-03-15T13:40:17.006Z,15.37
2019-03-15T13:42:46.293Z,15.50
2019-03-15T13:45:16.359Z,22.90
2019-03-15T13:47:45.708Z,18.87
2019-03-15T13:50:20.215Z,26.53
2019-03-15T13:52:49.507Z,11.57
2019-03-15T13:55:19.085Z,17.37
2019-03-15T13:57:48.673Z,11.10
2019-03-15T14:00:19.189Z,16.47
2019-03-15T14:02:48.800Z,11.67
2019-03-15T14:05:18.103Z,11.43
2019-03-15T14:07:47.392Z,8.00
2019-03-15T14:10:17.312Z,11.07
2019-03-15T14:12:46.583Z,9.90
2019-03-15T14:15:17.630Z,7.93
2019-03-15T14:17:46.923Z,9.33
2019-03-15T14:20:16.216Z,12.50
2019-03-15T14:22:45.497Z,12.00
2019-03-15T14:25:28.671Z,9.40
2019-03-15T14:27:57.945Z,8.60
2019-03-15T14:30:27.507Z,8.43
2019-03-15T14:32:56.781Z,16.50
2019-03-15T14:35:26.066Z,10.10
2019-03-15T14:37:55.441Z,8.23
2019-03-15T14:40:25.063Z,10.17
2019-03-15T14:42:55.547Z,11.53
2019-03-15T14:45:25.067Z,11.73
2019-03-15T14:47:54.646Z,8.73
2019-03-15T14:50:23.932Z,10.73
2019-03-15T14:52:53.455Z,8.70
2019-03-15T14:55:22.758Z,6.13
2019-03-15T14:57:53.450Z,7.20
2019-03-15T15:00:23.312Z,11.10
2019-03-15T15:02:52.911Z,9.97
2019-03-15T15:05:22.540Z,7.00
2019-03-15T15:07:52.122Z,5.90
2019-03-15T15:10:21.744Z,6.63
2019-03-15T15:12:51.345Z,8.77
2019-03-15T15:15:20.902Z,9.80
2019-03-15T15:17:50.200Z,8.93
2019-03-15T15:20:19.465Z,7.83
2019-03-15T15:22:48.763Z,6.67
2019-03-15T15:25:18.311Z,14.37
2019-03-15T15:27:47.608Z,6.97
2019-03-15T15:30:18.201Z,7.50
2019-03-15T15:32:47.490Z,6.63
2019-03-15T15:35:16.792Z,6.90
2019-03-15T15:37:46.532Z,7.33
2019-03-15T15:40:18.154Z,8.43
2019-03-15T15:42:47.510Z,10.90
2019-03-15T15:45:16.984Z,9.27
2019-03-15T15:47:46.273Z,16.93
2019-03-15T15:50:16.744Z,7.93
2019-03-15T15:52:46.297Z,6.70
2019-03-15T15:55:16.346Z,8.30
2019-03-15T15:57:45.927Z,9.87
2019-03-15T16:00:17.359Z,13.00
2019-03-15T16:02:46.703Z,14.73
2019-03-15T16:05:16.098Z,11.47
2019-03-15T16:07:45.414Z,11.37
2019-03-15T16:10:24.837Z,9.20
2019-03-15T16:12:54.109Z,14.40
2019-03-15T16:15:23.408Z,16.50
2019-03-15T16:17:52.685Z,20.00
2019-03-15T16:20:22.226Z,14.03
2019-03-15T16:22:51.530Z,8.77
2019-03-15T16:25:20.801Z,14.37
2019-03-15T16:27:50.087Z,15.10
2019-03-15T16:30:20.976Z,13.73
2019-03-15T16:32:50.271Z,11.80
2019-03-15T16:35:19.556Z,14.20
2019-03-15T16:37:48.839Z,9.27
2019-03-15T16:40:18.130Z,16.77
2019-03-15T16:42:47.438Z,14.83
2019-03-15T16:45:19.447Z,12.23
2019-03-15T16:47:49.048Z,7.80
2019-03-15T16:50:18.656Z,8.10
2019-03-15T16:52:47.959Z,7.60
2019-03-15T16:55:17.225Z,10.73
2019-03-15T16:57:46.554Z,10.03
2019-03-15T17:00:16.484Z,7.47
2019-03-15T17:02:45.785Z,6.57
2019-03-15T17:05:15.413Z,7.10
2019-03-15T17:07:44.717Z,7.03
2019-03-15T17:10:15.452Z,10.30
2019-03-15T17:12:44.985Z,7.30
2019-03-15T17:15:22.519Z,6.47
2019-03-15T17:17:52.167Z,7.23
2019-03-15T17:20:21.746Z,8.07
2019-03-15T17:22:51.017Z,4.60
2019-03-15T17:25:20.645Z,8.20
2019-03-15T17:27:50.252Z,5.23
2019-03-15T17:30:19.521Z,7.27
2019-03-15T17:32:48.816Z,3.77
2019-03-15T17:35:19.330Z,5.57
2019-03-15T17:37:48.627Z,4.87
2019-03-15T17:40:22.267Z,5.37
2019-03-15T17:42:51.897Z,6.43
2019-03-15T17:45:21.503Z,9.10
2019-03-15T17:47:51.116Z,8.70
2019-03-15T17:50:21.525Z,9.30
2019-03-15T17:52:50.831Z,16.77
2019-03-15T17:55:20.445Z,6.77
2019-03-15T17:57:49.907Z,6.80
2019-03-15T18:00:41.073Z,10.70
2019-03-15T18:03:20.684Z,10.00
2019-03-15T18:05:41.489Z,8.90
2019-03-15T18:08:10.770Z,7.97
2019-03-15T18:10:40.052Z,8.33
2019-03-15T18:13:09.615Z,7.70
2019-03-15T18:15:38.939Z,10.43
2019-03-15T18:18:08.291Z,9.93
2019-03-15T18:20:37.580Z,10.13
2019-03-15T18:23:07.144Z,4.43
2019-03-15T18:25:36.732Z,4.83
2019-03-15T18:28:06.015Z,2.87
2019-03-15T18:30:35.374Z,2.47
2019-03-15T18:33:04.728Z,3.00
2019-03-15T18:35:34.447Z,3.40
2019-03-15T18:38:03.807Z,3.57
2019-03-15T18:40:33.104Z,2.83
2019-03-15T18:43:02.390Z,3.13
2019-03-15T18:45:31.663Z,2.77
2019-03-15T18:48:01.097Z,3.13
2019-03-15T18:50:30.380Z,3.67
2019-03-15T18:52:59.663Z,6.17
2019-03-15T18:55:28.945Z,5.17
2019-03-15T18:57:58.232Z,5.97
2019-03-15T19:00:27.535Z,7.27
2019-03-15T19:02:59.828Z,7.23
2019-03-15T19:05:28.072Z,5.60
2019-03-15T19:07:57.616Z,9.50
2019-03-15T19:10:27.215Z,8.83
2019-03-15T19:12:56.826Z,8.67
2019-03-15T19:15:26.439Z,5.33
2019-03-15T19:17:55.779Z,5.43
2019-03-15T19:20:25.551Z,6.50
2019-03-15T19:22:54.897Z,10.17
2019-03-15T19:25:24.467Z,6.83
2019-03-15T19:27:53.751Z,5.77
2019-03-15T19:30:23.370Z,7.03
2019-03-15T19:32:52.639Z,8.78
2019-03-15T19:35:21.921Z,7.05
2019-03-15T19:37:51.500Z,6.90
2019-03-15T19:40:20.778Z,9.40
2019-03-15T19:42:50.068Z,12.13
2019-03-15T19:45:19.417Z,11.22
2019-03-15T19:47:48.690Z,6.15
2019-03-15T19:50:20.348Z,12.50
2019-03-15T19:52:49.963Z,10.23
2019-03-15T19:55:19.242Z,8.38
2019-03-15T19:57:49.672Z,6.85
2019-03-15T20:00:20.313Z,14.20
2019-03-15T20:02:49.668Z,10.85
2019-03-15T20:05:18.954Z,7.97
2019-03-15T20:07:48.366Z,13.70
2019-03-15T20:10:17.907Z,14.68
2019-03-15T20:12:47.634Z,10.80
2019-03-15T20:15:17.972Z,9.63
2019-03-15T20:17:47.559Z,14.95
2019-03-15T20:20:19.948Z,8.65
2019-03-15T20:22:49.546Z,11.70
2019-03-15T20:25:19.004Z,10.43
2019-03-15T20:27:48.287Z,7.70
2019-03-15T20:30:26.522Z,11.10
2019-03-15T20:32:55.615Z,9.05
2019-03-15T20:35:24.911Z,14.70
2019-03-15T20:37:54.658Z,13.50
2019-03-15T20:40:24.464Z,10.98
2019-03-15T20:42:54.078Z,12.78
2019-03-15T20:45:26.025Z,10.30
2019-03-15T20:47:55.749Z,12.30
2019-03-15T20:50:25.572Z,14.33
2019-03-15T20:53:07.631Z,12.15
2019-03-15T20:55:28.409Z,9.20
2019-03-15T20:57:56.813Z,8.15
2019-03-15T21:00:35.538Z,9.43
2019-03-15T21:02:57.668Z,7.50
2019-03-15T21:05:27.003Z,10.95
2019-03-15T21:07:56.289Z,8.88
2019-03-15T21:10:25.565Z,14.33
2019-03-15T21:12:54.864Z,9.75
2019-03-15T21:15:24.133Z,8.43
2019-03-15T21:17:53.709Z,14.13
2019-03-15T21:20:23.133Z,6.72
2019-03-15T21:22:52.472Z,12.85
2019-03-15T21:25:21.756Z,9.88
2019-03-15T21:27:54.191Z,11.60
2019-03-15T21:30:27.268Z,7.92
2019-03-15T21:32:56.551Z,10.15
2019-03-15T21:35:25.826Z,16.30
2019-03-15T21:37:55.128Z,9.88
2019-03-15T21:40:24.415Z,15.80
2019-03-15T21:42:53.710Z,9.40
2019-03-15T21:45:23.304Z,14.07
2019-03-15T21:47:52.605Z,21.20
2019-03-15T21:50:22.817Z,13.30
2019-03-15T21:52:52.103Z,9.88
2019-03-15T21:55:21.727Z,18.95
2019-03-15T21:57:51.031Z,13.72
2019-03-15T22:00:20.792Z,11.75
2019-03-15T22:02:50.313Z,12.33
2019-03-15T22:05:19.607Z,14.05
2019-03-15T22:07:49.158Z,12.00
2019-03-15T22:10:18.436Z,12.58
2019-03-15T22:12:47.722Z,9.53
2019-03-15T22:15:16.989Z,16.10
2019-03-15T22:17:46.585Z,19.42
2019-03-15T22:20:17.307Z,16.65
2019-03-15T22:22:46.584Z,13.95
2019-03-15T22:25:15.955Z,14.07
2019-03-15T22:27:45.251Z,11.48
2019-03-15T22:30:15.364Z,17.07
2019-03-15T22:32:44.937Z,20.50
2019-03-15T22:35:14.218Z,12.07
2019-03-15T22:37:43.519Z,13.62
2019-03-15T22:40:13.657Z,18.98
2019-03-15T22:42:42.949Z,18.30
2019-03-15T22:45:13.479Z,15.05
2019-03-15T22:47:42.761Z,11.70
2019-03-15T22:50:13.173Z,9.75
2019-03-15T22:52:42.449Z,16.48
2019-03-15T22:55:12.225Z,18.67
2019-03-15T22:57:41.493Z,14.93
2019-03-15T23:00:17.193Z,18.10
2019-03-15T23:02:48.442Z,18.48
2019-03-15T23:05:17.769Z,22.13
2019-03-15T23:07:47.049Z,19.87
2019-03-15T23:10:16.645Z,14.95
2019-03-15T23:12:46.238Z,15.85
2019-03-15T23:15:15.517Z,13.28
2019-03-15T23:17:44.808Z,21.07
2019-03-15T23:20:14.652Z,12.82
2019-03-15T23:22:44.911Z,12.88
2019-03-15T23:25:14.194Z,15.95
2019-03-15T23:27:43.494Z,17.77
2019-03-15T23:30:16.925Z,18.50
2019-03-15T23:32:46.492Z,33.20
2019-03-15T23:35:15.805Z,21.93
2019-03-15T23:37:45.382Z,14.83
2019-03-15T23:40:14.777Z,16.67
2019-03-15T23:42:44.058Z,16.85
2019-03-15T23:45:13.349Z,18.25
2019-03-15T23:47:42.640Z,16.50
2019-03-15T23:50:13.365Z,17.60
2019-03-15T23:52:42.641Z,17.57
2019-03-15T23:55:12.232Z,13.95
2019-03-15T23:57:41.509Z,15.80
